地図

経路データ

SID SEASON NUMBER BASIN SUBBASIN NAME ISO_TIME NATURE LAT LON WMO_WIND WMO_PRES WMO_AGENCY TRACK_TYPE DIST2LAND LANDFALL IFLAG USA_AGENCY USA_ATCF_ID USA_LAT USA_LON USA_RECORD USA_STATUS USA_WIND USA_PRES USA_SSHS USA_R34_NE USA_R34_SE USA_R34_SW USA_R34_NW USA_R50_NE USA_R50_SE USA_R50_SW USA_R50_NW USA_R64_NE USA_R64_SE USA_R64_SW USA_R64_NW USA_POCI USA_ROCI USA_RMW USA_EYE TOKYO_LAT TOKYO_LON TOKYO_GRADE TOKYO_WIND TOKYO_PRES TOKYO_R50_DIR TOKYO_R50_LONG TOKYO_R50_SHORT TOKYO_R30_DIR TOKYO_R30_LONG TOKYO_R30_SHORT TOKYO_LAND CMA_LAT CMA_LON CMA_CAT CMA_WIND CMA_PRES HKO_LAT HKO_LON HKO_CAT HKO_WIND HKO_PRES NEWDELHI_LAT NEWDELHI_LON NEWDELHI_GRADE NEWDELHI_WIND NEWDELHI_PRES NEWDELHI_CI NEWDELHI_DP NEWDELHI_POCI REUNION_LAT REUNION_LON REUNION_TYPE REUNION_WIND REUNION_PRES REUNION_TNUM REUNION_CI REUNION_RMW REUNION_R34_NE REUNION_R34_SE REUNION_R34_SW REUNION_R34_NW REUNION_R50_NE REUNION_R50_SE REUNION_R50_SW REUNION_R50_NW REUNION_R64_NE REUNION_R64_SE REUNION_R64_SW REUNION_R64_NW BOM_LAT BOM_LON BOM_TYPE BOM_WIND BOM_PRES BOM_TNUM BOM_CI BOM_RMW BOM_R34_NE BOM_R34_SE BOM_R34_SW BOM_R34_NW BOM_R50_NE BOM_R50_SE BOM_R50_SW BOM_R50_NW BOM_R64_NE BOM_R64_SE BOM_R64_SW BOM_R64_NW BOM_ROCI BOM_POCI BOM_EYE BOM_POS_METHOD BOM_PRES_METHOD NADI_LAT NADI_LON NADI_CAT NADI_WIND NADI_PRES WELLINGTON_LAT WELLINGTON_LON WELLINGTON_WIND WELLINGTON_PRES DS824_LAT DS824_LON DS824_STAGE DS824_WIND DS824_PRES TD9636_LAT TD9636_LON TD9636_STAGE TD9636_WIND TD9636_PRES TD9635_LAT TD9635_LON TD9635_WIND TD9635_PRES TD9635_ROCI NEUMANN_LAT NEUMANN_LON NEUMANN_CLASS NEUMANN_WIND NEUMANN_PRES MLC_LAT MLC_LON MLC_CLASS MLC_WIND MLC_PRES USA_GUST BOM_GUST BOM_GUST_PER REUNION_GUST REUNION_GUST_PER USA_SEAHGT USA_SEARAD_NE USA_SEARAD_SE USA_SEARAD_SW USA_SEARAD_NW STORM_SPEED STORM_DIR
1892206N20113 1892 29 WP MM NOT_NAMED 1892-07-23 16:00:00 NR 19.8000 113.400 main 238 235 __________O___ -1 19.8000 113.400 4 3 304
1892206N20113 1892 29 WP MM NOT_NAMED 1892-07-23 18:00:00 NR 19.8488 113.327 main 235 221 __________P___ -1 19.8488 113.327 4 3 304
1892206N20113 1892 29 WP MM NOT_NAMED 1892-07-23 21:00:00 NR 19.9225 113.207 main 221 207 __________P___ -1 19.9225 113.207 4 3 301
1892206N20113 1892 29 WP MM NOT_NAMED 1892-07-24 00:00:00 NR 19.9973 113.062 main 207 189 __________P___ -1 19.9973 113.062 4 3 296
1892206N20113 1892 29 WP MM NOT_NAMED 1892-07-24 03:00:00 NR 20.0740 112.874 main 189 186 __________P___ -1 20.0740 112.874 4 4 292
1892206N20113 1892 29 WP MM NOT_NAMED 1892-07-24 04:00:00 NR 20.1000 112.800 main 186 170 __________O___ -1 20.1000 112.800 4 5 289
1892206N20113 1892 29 WP MM NOT_NAMED 1892-07-24 06:00:00 NR 20.1528 112.632 main 170 150 __________P___ -1 20.1528 112.632 4 5 287
1892206N20113 1892 29 WP MM NOT_NAMED 1892-07-24 09:00:00 NR 20.2319 112.341 main 150 123 __________P___ -1 20.2319 112.341 4 6 285
1892206N20113 1892 29 WP MM NOT_NAMED 1892-07-24 12:00:00 NR 20.3081 112.025 main 123 100 __________P___ -1 20.3081 112.025 4 6 284
1892206N20113 1892 29 WP MM NOT_NAMED 1892-07-24 15:00:00 NR 20.3784 111.704 main 100 92 __________P___ -1 20.3784 111.704 4 6 283
1892206N20113 1892 29 WP MM NOT_NAMED 1892-07-24 16:00:00 NR 20.4000 111.600 main 92 76 __________O___ -1 20.4000 111.600 4 5 284
1892206N20113 1892 29 WP MM NOT_NAMED 1892-07-24 18:00:00 NR 20.4412 111.432 main 76 68 __________P___ -1 20.4412 111.432 4 5 284
1892206N20113 1892 29 WP MM NOT_NAMED 1892-07-24 21:00:00 NR 20.4970 111.186 main 68 41 __________P___ -1 20.4970 111.186 4 5 282
1892206N20113 1892 29 WP MM NOT_NAMED 1892-07-25 00:00:00 NR 20.5458 110.924 main 41 15 __________P___ -1 20.5458 110.924 4 5 280
1892206N20113 1892 29 WP MM NOT_NAMED 1892-07-25 03:00:00 NR 20.5876 110.617 main 15 10 __________P___ -1 20.5876 110.617 4 6 278
1892206N20113 1892 29 WP MM NOT_NAMED 1892-07-25 04:00:00 NR 20.6000 110.500 main 10 0 __________O___ -1 20.6000 110.500 4 7 276
1892206N20113 1892 29 WP MM NOT_NAMED 1892-07-25 06:00:00 NR 20.6226 110.229 main 0 0 __________P___ -1 20.6226 110.229 4 8 274
1892206N20113 1892 29 WP MM NOT_NAMED 1892-07-25 09:00:00 NR 20.6500 109.772 main 0 10 __________P___ -1 20.6500 109.772 4 9 273
1892206N20113 1892 29 WP MM NOT_NAMED 1892-07-25 12:00:00 NR 20.6723 109.277 main 43 53 __________P___ -1 20.6723 109.277 4 9 273
1892206N20113 1892 29 WP MM NOT_NAMED 1892-07-25 15:00:00 NR 20.6929 108.768 main 88 93 __________P___ -1 20.6929 108.768 4 10 273
1892206N20113 1892 29 WP MM NOT_NAMED 1892-07-25 16:00:00 NR 20.7000 108.600 main 98 88 __________O___ -1 20.7000 108.600 4 9 273
1892206N20113 1892 29 WP MM NOT_NAMED 1892-07-25 18:00:00 NR 20.7151 108.270 main 88 53 __________P___ -1 20.7151 108.270 4 9 273
1892206N20113 1892 29 WP MM NOT_NAMED 1892-07-25 21:00:00 NR 20.7395 107.788 main 53 15 __________P___ -1 20.7395 107.788 4 9 273
1892206N20113 1892 29 WP MM NOT_NAMED 1892-07-26 00:00:00 NR 20.7653 107.318 main 15 10 __________P___ -1 20.7653 107.318 4 9 273
1892206N20113 1892 29 WP MM NOT_NAMED 1892-07-26 03:00:00 NR 20.7914 106.854 main 10 0 __________P___ -1 20.7914 106.854 4 9 273
1892206N20113 1892 29 WP MM NOT_NAMED 1892-07-26 04:00:00 NR 20.8000 106.700 main 0 __________O___ -1 20.8000 106.700 7 9 273

デジタル台風データ・検索

IBTrACS Databaseについて

本データベースは、米国NOAAが公開する1842年以降の世界の熱帯低気圧のベストトラックデータアーカイブInternational Best Track Archive for Climate Stewardship (IBTrACS)を、ウェブで閲覧しやすい形式に変換したものです。

最終更新日:2021-10-27